createdAt,value
2018-08-06T00:02:32.289Z,8.90
2018-08-06T00:05:13.552Z,9.87
2018-08-06T00:07:54.393Z,10.67
2018-08-06T00:10:35.526Z,10.47
2018-08-06T00:13:16.362Z,9.70
2018-08-06T00:15:57.003Z,9.93
2018-08-06T00:18:38.536Z,10.73
2018-08-06T00:21:19.917Z,12.50
2018-08-06T00:24:00.530Z,12.33
2018-08-06T00:26:41.399Z,12.17
2018-08-06T00:29:22.977Z,10.90
2018-08-06T00:32:03.767Z,9.97
2018-08-06T00:34:44.373Z,10.50
2018-08-06T00:37:25.057Z,9.13
2018-08-06T00:40:05.924Z,10.40
2018-08-06T00:42:47.197Z,9.63
2018-08-06T00:45:28.383Z,10.03
2018-08-06T00:48:09.314Z,10.43
2018-08-06T00:50:50.086Z,9.60
2018-08-06T00:53:31.041Z,10.30
2018-08-06T00:56:11.808Z,10.63
2018-08-06T00:58:53.043Z,9.83
2018-08-06T01:01:34.522Z,9.90
2018-08-06T01:04:15.086Z,9.20
2018-08-06T01:06:55.982Z,10.33
2018-08-06T01:09:37.047Z,12.43
2018-08-06T01:12:18.681Z,11.37
2018-08-06T01:14:59.622Z,10.40
2018-08-06T01:17:41.166Z,10.57
2018-08-06T01:20:21.938Z,11.50
2018-08-06T01:23:02.849Z,12.00
2018-08-06T01:25:44.609Z,11.80
2018-08-06T01:28:25.137Z,11.40
2018-08-06T01:31:06.078Z,11.60
2018-08-06T01:33:47.622Z,10.97
2018-08-06T01:36:29.052Z,11.27
2018-08-06T01:39:11.801Z,12.03
2018-08-06T01:41:52.909Z,12.60
2018-08-06T01:44:34.477Z,11.67
2018-08-06T01:47:15.230Z,11.97
2018-08-06T01:49:56.446Z,11.40
2018-08-06T01:52:37.670Z,11.90
2018-08-06T01:55:19.169Z,12.90
2018-08-06T01:58:00.092Z,11.80
2018-08-06T02:00:41.229Z,13.10
2018-08-06T02:03:21.949Z,11.93
2018-08-06T02:06:02.846Z,11.73
2018-08-06T02:08:43.439Z,11.10
2018-08-06T02:11:24.301Z,11.10
2018-08-06T02:14:05.264Z,13.47
2018-08-06T02:16:46.099Z,12.47
2018-08-06T02:19:26.727Z,11.63
2018-08-06T02:22:08.233Z,11.87
2018-08-06T02:24:49.041Z,11.43
2018-08-06T02:27:30.006Z,11.40
2018-08-06T02:30:10.688Z,12.50
2018-08-06T02:32:52.254Z,10.03
2018-08-06T02:35:33.466Z,11.80
2018-08-06T02:38:14.250Z,12.00
2018-08-06T02:40:55.129Z,10.00
2018-08-06T02:43:35.791Z,9.83
2018-08-06T02:46:17.264Z,9.03
2018-08-06T02:48:58.006Z,9.30
2018-08-06T02:51:38.974Z,10.00
2018-08-06T02:54:20.444Z,10.67
2018-08-06T02:57:02.042Z,10.57
2018-08-06T02:59:43.865Z,9.20
2018-08-06T03:02:25.222Z,11.13
2018-08-06T03:05:06.718Z,11.37
2018-08-06T03:07:47.681Z,12.27
2018-08-06T03:10:28.382Z,11.63
2018-08-06T03:13:09.211Z,11.33
2018-08-06T03:15:50.154Z,12.33
2018-08-06T03:18:31.757Z,11.97
2018-08-06T03:21:12.319Z,11.27
2018-08-06T03:23:53.173Z,11.07
2018-08-06T03:26:33.733Z,11.77
2018-08-06T03:29:14.397Z,13.17
2018-08-06T03:31:55.152Z,11.30
2018-08-06T03:34:35.723Z,11.00
2018-08-06T03:37:16.517Z,11.90
2018-08-06T03:39:58.054Z,11.13
2018-08-06T03:42:38.794Z,13.40
2018-08-06T03:45:19.781Z,12.23
2018-08-06T03:48:00.513Z,12.07
2018-08-06T03:50:41.929Z,12.10
2018-08-06T03:53:22.890Z,11.70
2018-08-06T03:56:03.583Z,13.83
2018-08-06T03:58:44.353Z,14.23
2018-08-06T04:01:25.089Z,14.30
2018-08-06T04:04:05.742Z,13.77
2018-08-06T04:06:46.522Z,11.33
2018-08-06T04:09:28.534Z,13.13
2018-08-06T04:12:09.798Z,12.03
2018-08-06T04:14:50.473Z,12.07
2018-08-06T04:17:32.481Z,13.57
2018-08-06T04:20:14.063Z,13.20
2018-08-06T04:22:55.412Z,12.80
2018-08-06T04:25:36.198Z,12.87
2018-08-06T04:28:17.042Z,12.17
2018-08-06T04:30:58.260Z,12.90
2018-08-06T04:33:38.862Z,11.60
2018-08-06T04:36:19.710Z,12.50
2018-08-06T04:39:00.637Z,11.77
2018-08-06T04:41:42.495Z,11.50
2018-08-06T04:44:23.754Z,11.23
2018-08-06T04:47:04.498Z,14.90
2018-08-06T04:49:45.134Z,15.67
2018-08-06T04:52:25.975Z,15.93
2018-08-06T04:55:07.930Z,16.80
2018-08-06T04:57:49.161Z,14.30
2018-08-06T05:00:29.828Z,17.53
2018-08-06T05:03:10.434Z,14.40
2018-08-06T05:05:51.146Z,15.93
2018-08-06T05:08:32.217Z,15.23
2018-08-06T05:11:13.727Z,17.57
2018-08-06T05:13:54.689Z,15.43
2018-08-06T05:16:36.167Z,12.70
2018-08-06T05:19:16.936Z,12.53
2018-08-06T05:21:57.506Z,12.40
2018-08-06T05:24:38.334Z,12.77
2018-08-06T05:27:19.053Z,12.90
2018-08-06T05:29:59.989Z,12.27
2018-08-06T05:32:41.310Z,12.57
2018-08-06T05:35:22.133Z,11.23
2018-08-06T05:38:03.719Z,10.60
2018-08-06T05:40:45.215Z,11.60
2018-08-06T05:43:26.062Z,12.00
2018-08-06T05:46:06.736Z,10.77
2018-08-06T05:48:47.641Z,11.50
2018-08-06T05:51:29.169Z,12.40
2018-08-06T05:54:09.985Z,10.33
2018-08-06T05:56:50.935Z,10.67
2018-08-06T05:59:31.755Z,9.57
2018-08-06T06:02:12.373Z,10.30
2018-08-06T06:04:53.405Z,8.17
2018-08-06T06:07:34.163Z,8.60
2018-08-06T06:10:15.934Z,8.80
2018-08-06T06:12:57.495Z,8.77
2018-08-06T06:15:38.876Z,11.97
2018-08-06T06:18:19.602Z,12.00
2018-08-06T06:21:00.513Z,12.57
2018-08-06T06:23:41.129Z,12.30
2018-08-06T06:26:22.108Z,13.27
2018-08-06T06:29:03.298Z,11.20
2018-08-06T06:31:44.116Z,11.10
2018-08-06T06:34:24.717Z,11.50
2018-08-06T06:37:05.329Z,10.27
2018-08-06T06:39:46.266Z,9.97
2018-08-06T06:42:27.101Z,7.80
2018-08-06T06:45:08.967Z,10.60
2018-08-06T06:47:50.304Z,10.07
2018-08-06T06:50:31.009Z,14.47
2018-08-06T06:53:11.764Z,15.40
2018-08-06T06:55:52.336Z,13.17
2018-08-06T06:58:33.192Z,12.03
2018-08-06T07:01:13.941Z,10.10
2018-08-06T07:03:54.655Z,11.70
2018-08-06T07:06:35.200Z,11.90
2018-08-06T07:09:16.120Z,10.90
2018-08-06T07:11:56.880Z,9.93
2018-08-06T07:14:37.485Z,10.90
2018-08-06T07:17:18.427Z,10.90
2018-08-06T07:19:59.313Z,11.13
2018-08-06T07:22:40.186Z,10.00
2018-08-06T07:25:21.698Z,12.27
2018-08-06T07:28:02.391Z,10.83
2018-08-06T07:30:43.297Z,10.13
2018-08-06T07:33:23.895Z,9.40
2018-08-06T07:36:04.802Z,10.63
2018-08-06T07:38:45.606Z,10.10
2018-08-06T07:41:26.368Z,9.10
2018-08-06T07:44:07.977Z,8.80
2018-08-06T07:46:48.968Z,9.70
2018-08-06T07:49:29.791Z,10.63
2018-08-06T07:52:10.664Z,11.33
2018-08-06T07:54:51.330Z,10.27
2018-08-06T07:57:31.998Z,10.83
2018-08-06T08:00:13.169Z,11.43
2018-08-06T08:02:54.594Z,9.27
2018-08-06T08:05:36.098Z,9.33
2018-08-06T08:08:16.895Z,10.23
2018-08-06T08:10:57.504Z,11.30
2018-08-06T08:13:38.170Z,10.60
2018-08-06T08:16:19.036Z,9.87
2018-08-06T08:18:59.878Z,11.50
2018-08-06T08:21:40.729Z,10.90
2018-08-06T08:24:21.548Z,10.13
2018-08-06T08:27:02.200Z,11.37
2018-08-06T08:29:43.792Z,9.57
2018-08-06T08:32:24.778Z,10.40
2018-08-06T08:35:05.818Z,10.43
2018-08-06T08:37:47.670Z,10.27
2018-08-06T08:40:28.952Z,10.23
2018-08-06T08:43:09.927Z,12.57
2018-08-06T08:45:50.912Z,12.03
2018-08-06T08:48:31.751Z,10.70
2018-08-06T08:51:12.638Z,11.80
2018-08-06T08:53:53.365Z,12.03
2018-08-06T08:56:34.074Z,12.80
2018-08-06T08:59:14.805Z,11.90
2018-08-06T09:01:55.725Z,11.90
2018-08-06T09:04:36.756Z,14.00
2018-08-06T09:07:17.370Z,12.30
2018-08-06T09:09:58.376Z,11.93
2018-08-06T09:12:38.948Z,13.57
2018-08-06T09:15:19.789Z,15.97
2018-08-06T09:18:00.799Z,13.47
2018-08-06T09:20:41.369Z,15.60
2018-08-06T09:23:22.212Z,10.57
2018-08-06T09:26:03.051Z,13.63
2018-08-06T09:28:43.784Z,14.87
2018-08-06T09:31:25.252Z,13.90
2018-08-06T09:34:06.263Z,13.90
2018-08-06T09:36:47.767Z,13.93
2018-08-06T09:39:28.427Z,12.03
2018-08-06T09:42:09.174Z,11.90
2018-08-06T09:44:50.318Z,11.63
2018-08-06T09:47:30.823Z,15.37
2018-08-06T09:50:12.372Z,15.80
2018-08-06T09:52:53.852Z,14.97
2018-08-06T09:55:34.956Z,15.23
2018-08-06T09:58:15.701Z,14.00
2018-08-06T10:01:01.542Z,15.30
2018-08-06T10:03:43.002Z,15.67
2018-08-06T10:06:25.051Z,16.87
2018-08-06T10:09:05.936Z,18.87
2018-08-06T10:11:47.126Z,15.43
2018-08-06T10:14:28.021Z,16.90
2018-08-06T10:17:08.673Z,18.87
2018-08-06T10:19:49.274Z,20.30
2018-08-06T10:22:29.955Z,14.57
2018-08-06T10:25:11.926Z,17.87
2018-08-06T10:27:53.377Z,15.07
2018-08-06T10:30:34.158Z,16.87
2018-08-06T10:33:15.244Z,18.07
2018-08-06T10:35:56.716Z,17.50
2018-08-06T10:38:37.992Z,18.30
2018-08-06T10:41:18.663Z,19.40
2018-08-06T10:43:59.621Z,16.87
2018-08-06T10:46:40.184Z,17.30
2018-08-06T10:49:20.925Z,20.43
2018-08-06T10:52:01.945Z,17.80
2018-08-06T10:54:43.788Z,17.30
2018-08-06T10:57:25.294Z,18.10
2018-08-06T11:00:06.099Z,15.20
2018-08-06T11:02:48.271Z,13.63
2018-08-06T11:05:29.815Z,14.50
2018-08-06T11:08:10.993Z,15.50
2018-08-06T11:10:51.745Z,14.50
2018-08-06T11:13:32.347Z,13.43
2018-08-06T11:16:13.024Z,14.30
2018-08-06T11:18:53.840Z,12.97
2018-08-06T11:21:35.218Z,12.47
2018-08-06T11:24:16.246Z,11.43
2018-08-06T11:26:57.222Z,11.70
2018-08-06T11:29:38.165Z,11.60
2018-08-06T11:32:18.752Z,10.40
2018-08-06T11:34:59.834Z,9.80
2018-08-06T11:37:41.710Z,11.07
2018-08-06T11:40:22.409Z,10.73
2018-08-06T11:43:03.220Z,9.03
2018-08-06T11:45:44.012Z,9.60
2018-08-06T11:48:24.949Z,9.00
2018-08-06T11:51:05.803Z,9.80
2018-08-06T11:53:46.573Z,9.50
2018-08-06T11:56:27.363Z,9.37
2018-08-06T11:59:08.377Z,10.60
2018-08-06T12:01:49.195Z,10.50
2018-08-06T12:04:30.153Z,9.50
2018-08-06T12:07:11.305Z,10.07
2018-08-06T12:09:52.294Z,11.07
2018-08-06T12:12:32.978Z,11.70
2018-08-06T12:15:14.036Z,11.73
2018-08-06T12:17:54.886Z,10.60
2018-08-06T12:20:35.458Z,11.30
2018-08-06T12:23:16.337Z,10.97
2018-08-06T12:25:57.199Z,10.43
2018-08-06T12:28:38.166Z,10.80
2018-08-06T12:31:19.801Z,10.97
2018-08-06T12:34:00.469Z,10.00
2018-08-06T12:36:41.285Z,10.00
2018-08-06T12:39:22.179Z,9.20
2018-08-06T12:42:03.786Z,8.40
2018-08-06T12:44:45.447Z,8.90
2018-08-06T12:47:26.262Z,9.13
2018-08-06T12:50:07.999Z,8.43
2018-08-06T12:52:49.213Z,8.67
2018-08-06T12:55:29.877Z,9.23
2018-08-06T12:58:10.889Z,9.37
2018-08-06T13:00:51.443Z,8.70
2018-08-06T13:03:32.441Z,8.87
2018-08-06T13:06:13.268Z,8.20
2018-08-06T13:08:54.162Z,7.77
2018-08-06T13:11:35.672Z,7.93
2018-08-06T13:14:16.608Z,8.77
2018-08-06T13:16:58.025Z,8.10
2018-08-06T13:19:39.185Z,8.60
2018-08-06T13:22:20.654Z,7.20
2018-08-06T13:25:01.953Z,8.53
2018-08-06T13:27:42.710Z,7.57
2018-08-06T13:30:24.028Z,7.50
2018-08-06T13:33:04.957Z,7.33
2018-08-06T13:35:46.233Z,7.83
2018-08-06T13:38:27.773Z,7.73
2018-08-06T13:41:08.538Z,8.13
2018-08-06T13:43:49.449Z,7.30
2018-08-06T13:46:30.117Z,8.90
2018-08-06T13:49:11.161Z,7.87
2018-08-06T13:51:51.920Z,8.40
2018-08-06T13:54:32.509Z,8.27
2018-08-06T13:57:14.051Z,7.47
2018-08-06T13:59:55.120Z,7.13
2018-08-06T14:02:36.478Z,8.00
2018-08-06T14:05:18.047Z,7.97
2018-08-06T14:07:58.937Z,7.97
2018-08-06T14:10:39.630Z,8.23
2018-08-06T14:13:20.414Z,7.50
2018-08-06T14:16:01.018Z,8.40
2018-08-06T14:18:42.118Z,7.77
2018-08-06T14:21:22.996Z,7.27
2018-08-06T14:24:04.558Z,7.53
2018-08-06T14:26:45.842Z,8.30
2018-08-06T14:29:27.373Z,8.20
2018-08-06T14:32:14.677Z,8.20
2018-08-06T14:34:55.352Z,8.10
2018-08-06T14:37:36.254Z,8.70
2018-08-06T14:40:18.168Z,8.63
2018-08-06T14:42:59.025Z,9.53
2018-08-06T14:45:39.907Z,9.27
2018-08-06T14:48:20.744Z,9.10
2018-08-06T14:51:01.424Z,9.13
2018-08-06T14:53:42.099Z,9.30
2018-08-06T14:56:23.007Z,9.33
2018-08-06T14:59:03.702Z,8.83
2018-08-06T15:01:44.693Z,8.57
2018-08-06T15:04:25.278Z,8.43
2018-08-06T15:07:06.471Z,8.90
2018-08-06T15:09:47.529Z,9.23
2018-08-06T15:12:28.174Z,8.60
2018-08-06T15:15:08.821Z,8.30
2018-08-06T15:17:50.696Z,8.87
2018-08-06T15:20:31.339Z,9.17
2018-08-06T15:23:11.938Z,8.63
2018-08-06T15:25:53.286Z,9.20
2018-08-06T15:28:34.214Z,9.17
2018-08-06T15:31:15.782Z,8.77
2018-08-06T15:33:56.418Z,9.87
2018-08-06T15:36:37.025Z,12.20
2018-08-06T15:39:18.508Z,12.17
2018-08-06T15:41:59.516Z,9.90
2018-08-06T15:44:40.217Z,10.60
2018-08-06T15:47:21.495Z,11.03
2018-08-06T15:50:02.133Z,9.30
2018-08-06T15:52:43.014Z,9.03
2018-08-06T15:55:23.861Z,9.10
2018-08-06T15:58:04.642Z,9.83
2018-08-06T16:00:45.301Z,8.77
2018-08-06T16:03:25.991Z,9.90
2018-08-06T16:06:06.505Z,9.53
2018-08-06T16:08:47.474Z,8.60
2018-08-06T16:11:28.309Z,9.07
2018-08-06T16:14:08.987Z,9.10
2018-08-06T16:16:49.673Z,9.23
2018-08-06T16:19:30.552Z,9.10
2018-08-06T16:22:11.588Z,9.27
2018-08-06T16:24:52.878Z,8.83
2018-08-06T16:27:33.905Z,8.70
2018-08-06T16:30:15.335Z,9.47
2018-08-06T16:32:56.446Z,9.43
2018-08-06T16:35:37.500Z,8.93
2018-08-06T16:38:18.154Z,9.43
2018-08-06T16:40:58.896Z,9.77
2018-08-06T16:43:39.822Z,8.60
2018-08-06T16:46:21.401Z,9.70
2018-08-06T16:49:02.345Z,10.00
2018-08-06T16:51:43.398Z,9.00
2018-08-06T16:54:23.959Z,9.83
2018-08-06T16:57:04.868Z,9.40
2018-08-06T16:59:46.376Z,9.37
2018-08-06T17:02:27.367Z,9.70
2018-08-06T17:05:08.169Z,9.03
2018-08-06T17:07:49.694Z,8.90
2018-08-06T17:10:30.496Z,9.67
2018-08-06T17:13:11.309Z,10.53
2018-08-06T17:15:52.246Z,10.30
2018-08-06T17:18:33.649Z,9.83
2018-08-06T17:21:14.854Z,10.17
2018-08-06T17:23:56.522Z,10.00
2018-08-06T17:26:37.530Z,10.10
2018-08-06T17:29:18.560Z,9.73
2018-08-06T17:31:59.422Z,9.80
2018-08-06T17:34:40.101Z,10.40
2018-08-06T17:37:20.781Z,10.40
2018-08-06T17:40:01.477Z,10.93
2018-08-06T17:42:42.459Z,11.23
2018-08-06T17:45:24.153Z,10.50
2018-08-06T17:48:05.607Z,10.87
2018-08-06T17:50:46.765Z,10.20
2018-08-06T17:53:27.643Z,10.87
2018-08-06T17:56:09.117Z,10.67
2018-08-06T17:58:50.718Z,10.73
2018-08-06T18:01:31.472Z,12.90
2018-08-06T18:04:12.274Z,10.70
2018-08-06T18:06:53.761Z,10.63
2018-08-06T18:09:34.405Z,11.43
2018-08-06T18:12:15.560Z,11.53
2018-08-06T18:14:56.793Z,11.83
2018-08-06T18:17:37.926Z,11.07
2018-08-06T18:20:19.957Z,11.30
2018-08-06T18:23:01.079Z,11.73
2018-08-06T18:25:41.779Z,13.00
2018-08-06T18:28:22.998Z,12.20
2018-08-06T18:31:04.312Z,12.37
2018-08-06T18:33:45.131Z,11.43
2018-08-06T18:36:25.925Z,12.80
2018-08-06T18:39:06.581Z,10.83
2018-08-06T18:41:48.013Z,12.20
2018-08-06T18:44:28.867Z,11.57
2018-08-06T18:47:09.518Z,12.40
2018-08-06T18:49:54.450Z,14.23
2018-08-06T18:52:35.485Z,12.17
2018-08-06T18:55:16.700Z,12.23
2018-08-06T18:57:58.147Z,13.20
2018-08-06T19:00:38.969Z,12.80
2018-08-06T19:03:20.404Z,14.20
2018-08-06T19:06:01.420Z,13.27
2018-08-06T19:08:42.277Z,14.07
2018-08-06T19:11:23.702Z,13.57
2018-08-06T19:14:09.417Z,12.57
2018-08-06T19:16:51.430Z,13.63
2018-08-06T19:19:32.985Z,12.63
2018-08-06T19:22:14.433Z,13.80
2018-08-06T19:25:00.507Z,12.90
2018-08-06T19:27:42.427Z,12.60
2018-08-06T19:30:27.934Z,13.37
2018-08-06T19:33:08.600Z,13.67
2018-08-06T19:35:49.702Z,13.30
2018-08-06T19:38:30.464Z,12.50
2018-08-06T19:41:11.126Z,12.53
2018-08-06T19:43:51.961Z,13.63
2018-08-06T19:46:32.606Z,14.30
2018-08-06T19:49:18.727Z,13.70
2018-08-06T19:51:59.662Z,13.40
2018-08-06T19:54:41.133Z,12.60
2018-08-06T19:57:21.810Z,13.63
2018-08-06T20:00:02.478Z,12.20
2018-08-06T20:02:44.317Z,14.43
2018-08-06T20:05:25.122Z,13.23
2018-08-06T20:08:05.973Z,13.70
2018-08-06T20:10:47.598Z,14.43
2018-08-06T20:13:28.265Z,13.07
2018-08-06T20:16:08.907Z,13.53
2018-08-06T20:18:49.654Z,13.73
2018-08-06T20:21:30.517Z,14.40
2018-08-06T20:24:11.406Z,13.97
2018-08-06T20:26:52.705Z,12.90
2018-08-06T20:29:33.558Z,14.40
2018-08-06T20:32:14.178Z,13.83
2018-08-06T20:34:54.751Z,14.90
2018-08-06T20:37:35.677Z,14.63
2018-08-06T20:40:16.234Z,15.10
2018-08-06T20:42:57.196Z,13.30
2018-08-06T20:45:38.001Z,13.90
2018-08-06T20:48:19.507Z,13.00
2018-08-06T20:51:00.178Z,12.60
2018-08-06T20:53:41.138Z,13.73
2018-08-06T20:56:21.995Z,14.07
2018-08-06T20:59:02.902Z,11.87
2018-08-06T21:01:43.825Z,12.40
2018-08-06T21:04:24.484Z,12.77
2018-08-06T21:07:05.238Z,13.47
2018-08-06T21:09:45.938Z,14.10
2018-08-06T21:12:26.551Z,12.47
2018-08-06T21:15:07.106Z,13.93
2018-08-06T21:17:48.119Z,12.67
2018-08-06T21:20:28.785Z,12.80
2018-08-06T21:23:10.375Z,14.00
2018-08-06T21:25:51.246Z,14.13
2018-08-06T21:28:32.029Z,14.13
2018-08-06T21:31:12.690Z,14.30
2018-08-06T21:33:53.299Z,15.47
2018-08-06T21:36:33.993Z,15.50
2018-08-06T21:39:15.245Z,13.87
2018-08-06T21:41:56.689Z,13.60
2018-08-06T21:44:37.381Z,13.93
2018-08-06T21:47:18.775Z,14.03
2018-08-06T21:49:59.403Z,15.20
2018-08-06T21:52:40.065Z,15.90
2018-08-06T21:55:20.832Z,15.87
2018-08-06T21:58:02.417Z,15.57
2018-08-06T22:00:43.386Z,14.47
2018-08-06T22:03:24.275Z,15.60
2018-08-06T22:06:04.935Z,14.07
2018-08-06T22:08:45.619Z,15.57
2018-08-06T22:11:26.417Z,14.50
2018-08-06T22:14:06.938Z,18.70
2018-08-06T22:16:47.910Z,17.83
2018-08-06T22:19:29.442Z,16.70
2018-08-06T22:22:10.592Z,17.57
2018-08-06T22:24:52.247Z,16.40
2018-08-06T22:27:33.057Z,15.80
2018-08-06T22:30:15.024Z,16.30
2018-08-06T22:32:56.177Z,17.13
2018-08-06T22:35:36.945Z,17.80
2018-08-06T22:38:17.843Z,17.43
2018-08-06T22:40:58.419Z,17.37
2018-08-06T22:43:39.632Z,17.90
2018-08-06T22:46:21.077Z,16.87
2018-08-06T22:49:02.485Z,15.83
2018-08-06T22:51:43.501Z,15.33
2018-08-06T22:54:24.949Z,14.87
2018-08-06T22:57:05.824Z,16.33
2018-08-06T22:59:46.522Z,16.00
2018-08-06T23:02:27.049Z,16.30
2018-08-06T23:05:08.313Z,14.47
2018-08-06T23:07:49.628Z,15.93
2018-08-06T23:10:30.678Z,16.27
2018-08-06T23:13:11.393Z,17.10
2018-08-06T23:15:52.340Z,16.73
2018-08-06T23:18:32.965Z,17.43
2018-08-06T23:21:13.883Z,16.80
2018-08-06T23:23:54.658Z,17.43
2018-08-06T23:26:35.402Z,16.50
2018-08-06T23:29:16.001Z,15.77
2018-08-06T23:31:56.753Z,16.67
2018-08-06T23:34:38.282Z,14.77
2018-08-06T23:37:18.996Z,15.10
2018-08-06T23:39:59.637Z,15.30
2018-08-06T23:42:41.215Z,14.70
2018-08-06T23:45:22.497Z,16.57
2018-08-06T23:48:03.333Z,16.77
2018-08-06T23:50:43.966Z,16.97
2018-08-06T23:53:24.853Z,15.07
2018-08-06T23:56:05.444Z,15.20
2018-08-06T23:58:46.164Z,15.50
